Atago — JD3488 — position and weather

sailwx.info

Track history (hours):
 
Tides and Currents Weather Stations Pressure Air Temp Water Temp Dewpoint Dewpoint Depression Visibility Wind Speed Wind Dir Waves Ship Positions

Atago

Last reported at 2018-Jan-12 04:59 UTC. Time now 2018-Jan-19 01:08 UTC.
Position N 34°35' E 136°58'.

Length 61 m; draft 3.8 m.

Type: Tanker. MMSI: 431004325.

Date/timePositionNaut miles runAvg speedWind from/ knotsBaromVisibWave heightAir tempDewpointWater temp
2018-Jan-12 04:59N 34°35' E 136°58'611.7
2018-Jan-12 04:30N 34°38' E 136°52'611.8
2018-Jan-12 04:00N 34°43' E 136°48'612.3
2018-Jan-12 03:30N 34°49' E 136°45'611.8
2018-Jan-12 03:00N 34°54' E 136°42'4 8.2
2018-Jan-12 02:30N 34°57' E 136°38'0 0.0
2018-Jan-12 02:00N 34°57' E 136°38'0 0.0
2018-Jan-12 01:29N 34°57' E 136°38'0 0.0
2018-Jan-12 00:59N 34°57' E 136°38'0 0.0
2018-Jan-12 00:29N 34°57' E 136°38'0 0.4
2018-Jan-12 00:01N 34°57' E 136°38'3 5.2
2018-Jan-11 23:30N 34°56' E 136°41'4 9.0
2018-Jan-11 23:01N 34°51' E 136°43'4 8.7
2018-Jan-11 22:30N 34°47' E 136°46'4 8.4
2018-Jan-11 22:00N 34°44' E 136°48'4 8.9
2018-Jan-11 21:30N 34°40' E 136°51'7 8.8
2018-Jan-11 20:44N 34°36' E 136°58'106 8.1
2018-Jan-11 07:41N 33°47' E 135°04'412.1
2018-Jan-11 07:22N 33°50' E 135°02'411.9
2018-Jan-11 07:00N 33°55' E 135°01'611.7
2018-Jan-11 06:30N 34°00' E 135°00'611.6
2018-Jan-11 06:01N 34°06' E 134°59'611.7
2018-Jan-11 05:30N 34°12' E 134°59'611.6
2018-Jan-11 05:01N 34°18' E 134°59'511.0
2018-Jan-11 04:30N 34°23' E 135°01'611.3
2018-Jan-11 04:00N 34°27' E 135°06'611.5
2018-Jan-11 03:30N 34°30' E 135°12'611.3
2018-Jan-11 03:01N 34°35' E 135°16'611.0
2018-Jan-11 02:30N 34°39' E 135°21'4 7.9
2018-Jan-11 02:00N 34°40' E 135°25'0 0.1
2018-Jan-11 01:30N 34°40' E 135°25'0 0.0
2018-Jan-11 01:00N 34°40' E 135°25'0 0.0
2018-Jan-11 00:30N 34°40' E 135°25'0 0.0
2018-Jan-11 00:00N 34°40' E 135°25'0 0.0
2018-Jan-10 23:30N 34°40' E 135°25'1 2.9
2018-Jan-10 23:00N 34°40' E 135°24'2 3.4
2018-Jan-10 22:28N 34°40' E 135°21'0 0.0
2018-Jan-10 21:58N 34°40' E 135°21'0 0.0
2018-Jan-10 21:28N 34°40' E 135°21'0 0.0
2018-Jan-10 20:58N 34°40' E 135°21'0 0.0
2018-Jan-10 20:28N 34°40' E 135°21'0 0.0
2018-Jan-10 19:58N 34°40' E 135°21'0 0.0
2018-Jan-10 19:28N 34°40' E 135°21'0 0.0
2018-Jan-10 18:58N 34°40' E 135°21'0 0.0
2018-Jan-10 18:28N 34°40' E 135°21'0 0.0
2018-Jan-10 17:58N 34°40' E 135°21'0 0.0
2018-Jan-10 17:28N 34°40' E 135°21'0 0.0
2018-Jan-10 16:58N 34°40' E 135°21'0 0.1
2018-Jan-10 16:28N 34°40' E 135°21'3 5.5
2018-Jan-10 16:00N 34°38' E 135°19'611.4
2018-Jan-10 15:30N 34°35' E 135°13'612.2
2018-Jan-10 15:00N 34°35' E 135°06'612.8
2018-Jan-10 14:30N 34°37' E 134°58'713.6
2018-Jan-10 14:00N 34°34' E 134°51'612.4
2018-Jan-10 13:30N 34°31' E 134°44'611.9
2018-Jan-10 13:00N 34°29' E 134°37'611.7
2018-Jan-10 12:30N 34°27' E 134°30'611.9
2018-Jan-10 11:58N 34°25' E 134°23'84 4.2
2018-Jan-09 16:00N 34°02' E 132°46'611.7
2018-Jan-09 15:30N 33°57' E 132°42'611.6
2018-Jan-09 15:00N 33°54' E 132°37'811.5
2018-Jan-09 14:20N 33°51' E 132°28'411.4
2018-Jan-09 13:58N 33°50' E 132°23'911.8
2018-Jan-09 13:10N 33°50' E 132°12'311.5
2018-Jan-09 12:54N 33°48' E 132°08'511.6
2018-Jan-09 12:29N 33°46' E 132°03'611.1
2018-Jan-09 11:57N 33°50' E 131°58'711.8
2018-Jan-09 11:22N 33°53' E 131°51'411.9
2018-Jan-09 10:59N 33°56' E 131°47'611.8
2018-Jan-09 10:29N 34°01' E 131°43'2 4.2
2018-Jan-09 10:00N 34°03' E 131°45'0 0.0
2018-Jan-09 09:30N 34°03' E 131°45'0 0.0
2018-Jan-09 09:00N 34°03' E 131°45'0 0.0
2018-Jan-09 07:48N 34°03' E 131°45'0 1.4
2018-Jan-09 07:30N 34°02' E 131°45'3 6.1
2018-Jan-09 07:00N 34°02' E 131°41'1 1.7
2018-Jan-09 06:25N 34°01' E 131°40'0 0.1
2018-Jan-09 05:55N 34°01' E 131°40'0 0.0
2018-Jan-09 05:28N 34°01' E 131°40'0 0.0
2018-Jan-09 04:49N 34°01' E 131°40'0 0.0
2018-Jan-09 04:19N 34°01' E 131°40'0 0.0
2018-Jan-09 03:49N 34°01' E 131°40'0 0.1
2018-Jan-09 03:28N 34°01' E 131°40'0 0.0
2018-Jan-09 02:55N 34°01' E 131°40'0 0.0
2018-Jan-09 02:25N 34°01' E 131°40'0 0.1
2018-Jan-09 01:58N 34°01' E 131°40'0 0.1
2018-Jan-09 01:28N 34°01' E 131°40'0 0.1
2018-Jan-09 00:58N 34°01' E 131°40'0 0.1
2018-Jan-09 00:25N 34°01' E 131°40'0 0.0
2018-Jan-08 23:58N 34°01' E 131°40'0 0.1
2018-Jan-08 23:28N 34°01' E 131°40'0 0.0
2018-Jan-08 22:55N 34°01' E 131°40'0 0.0
2018-Jan-08 22:19N 34°01' E 131°40'0 0.0
2018-Jan-08 21:58N 34°01' E 131°40'0 0.0
2018-Jan-08 21:28N 34°01' E 131°40'0 0.0
2018-Jan-08 20:58N 34°01' E 131°40'0 0.0
2018-Jan-08 20:28N 34°01' E 131°40'0 0.0
2018-Jan-08 19:58N 34°01' E 131°40'0 0.0
2018-Jan-08 19:28N 34°01' E 131°40'0 0.0
2018-Jan-08 18:58N 34°01' E 131°40'0 0.0
2018-Jan-08 18:28N 34°01' E 131°40'0 0.0
2018-Jan-08 17:55N 34°01' E 131°40'0 0.0
2018-Jan-08 17:25N 34°01' E 131°40'0 0.0
2018-Jan-08 16:58N 34°01' E 131°40'0 0.0
2018-Jan-08 16:28N 34°01' E 131°40'0 0.0
2018-Jan-08 15:58N 34°01' E 131°40'0 0.0
2018-Jan-08 15:16N 34°01' E 131°40'0 0.0
2018-Jan-08 14:58N 34°01' E 131°40'0 0.0
2018-Jan-08 14:28N 34°01' E 131°40'3 5.5
2018-Jan-08 14:00N 33°59' E 131°42'510.4
2018-Jan-08 13:30N 33°56' E 131°47'1010.4
2018-Jan-08 12:30N 33°50' E 131°57'611.2
2018-Jan-08 12:00N 33°46' E 132°02'611.3
2018-Jan-08 11:30N 33°48' E 132°08'611.7
2018-Jan-08 11:01N 33°50' E 132°14'612.1
2018-Jan-08 10:29N 33°50' E 132°22'712.3
2018-Jan-08 09:52N 33°52' E 132°31'412.4
2018-Jan-08 09:30N 33°54' E 132°36'712.8
2018-Jan-08 09:00N 33°58' E 132°42'88 2.9
2018-Jan-07 03:03N 34°25' E 134°23'112.6
2018-Jan-07 02:56N 34°26' E 134°25'512.8
2018-Jan-07 02:30N 34°28' E 134°31'613.0
2018-Jan-07 02:00N 34°30' E 134°38'713.3
2018-Jan-07 01:30N 34°33' E 134°46'1413.8
2018-Jan-07 00:31N 34°37' E 135°02'611.8
2018-Jan-07 00:00N 34°36' E 135°09'612.1
2018-Jan-06 23:30N 34°37' E 135°16'612.0
2018-Jan-06 23:00N 34°40' E 135°23'510.2
2018-Jan-06 22:30N 34°38' E 135°28'1 0.9
2018-Jan-06 21:58N 34°38' E 135°29'0 0.0
2018-Jan-06 21:28N 34°38' E 135°29'0 0.0
2018-Jan-06 20:58N 34°38' E 135°29'0 0.0
2018-Jan-06 20:28N 34°38' E 135°29'0 0.0
2018-Jan-06 19:58N 34°38' E 135°29'0 0.0
2018-Jan-06 19:28N 34°38' E 135°29'0 0.0
2018-Jan-06 18:58N 34°38' E 135°29'0 0.0
2018-Jan-06 18:28N 34°38' E 135°29'0 0.0
2018-Jan-06 17:58N 34°38' E 135°29'0 0.0
2018-Jan-06 17:28N 34°38' E 135°29'0 0.0
2018-Jan-06 16:58N 34°38' E 135°29'0 0.0
2018-Jan-06 16:28N 34°38' E 135°29'0 0.0
2018-Jan-06 15:58N 34°38' E 135°29'0 0.0
2018-Jan-06 15:28N 34°38' E 135°29'0 0.0
2018-Jan-06 14:58N 34°38' E 135°29'0 0.0
2018-Jan-06 14:28N 34°38' E 135°29'0 0.0
2018-Jan-06 13:58N 34°38' E 135°29'0 0.0
2018-Jan-06 13:28N 34°38' E 135°29'0 0.0
2018-Jan-06 12:58N 34°38' E 135°29'0 0.0
2018-Jan-06 12:28N 34°38' E 135°29'0 0.0
2018-Jan-06 11:58N 34°38' E 135°29'0 0.0
2018-Jan-06 11:28N 34°38' E 135°29'0 0.0
2018-Jan-06 10:58N 34°38' E 135°29'0 0.0
2018-Jan-06 10:28N 34°38' E 135°29'0 0.0
2018-Jan-06 09:58N 34°38' E 135°29'0 0.0
2018-Jan-06 09:28N 34°38' E 135°29'0 0.0
2018-Jan-06 08:58N 34°38' E 135°29'0 0.0
2018-Jan-06 08:28N 34°38' E 135°29'0 0.0
2018-Jan-06 07:55N 34°38' E 135°29'0 0.0
2018-Jan-06 07:22N 34°38' E 135°29'0 0.0
2018-Jan-06 06:55N 34°38' E 135°29'0 0.1
2018-Jan-06 06:30N 34°38' E 135°29'3 5.4
2018-Jan-06 06:00N 34°39' E 135°25'5 9.8
2018-Jan-06 05:30N 34°35' E 135°22'3 6.5
2018-Jan-06 05:00N 34°32' E 135°25'0 0.0
2018-Jan-06 04:30N 34°32' E 135°25'0 0.0
2018-Jan-06 04:00N 34°32' E 135°25'0 0.0
2018-Jan-06 03:30N 34°32' E 135°25'0 0.0
2018-Jan-06 03:00N 34°32' E 135°25'0 0.0
2018-Jan-06 02:30N 34°32' E 135°25'0 0.0
2018-Jan-06 01:57N 34°32' E 135°25'0 0.0
2018-Jan-06 01:30N 34°32' E 135°25'0 0.0
2018-Jan-06 00:57N 34°32' E 135°25'0 0.0
2018-Jan-06 00:31N 34°32' E 135°25'1 2.1
2018-Jan-06 00:01N 34°33' E 135°25'2 3.9
2018-Jan-05 23:30N 34°33' E 135°22'0 0.0
2018-Jan-05 23:00N 34°33' E 135°22'0 0.0
2018-Jan-05 22:30N 34°33' E 135°22'0 0.0
2018-Jan-05 22:00N 34°33' E 135°22'0 0.1
2018-Jan-05 21:30N 34°33' E 135°22'5 9.5
2018-Jan-05 21:00N 34°34' E 135°17'611.0
2018-Jan-05 20:30N 34°34' E 135°10'611.3
2018-Jan-05 20:00N 34°36' E 135°03'713.4
2018-Jan-05 19:30N 34°35' E 134°55'714.1
2018-Jan-05 19:00N 34°33' E 134°47'612.5
2018-Jan-05 18:30N 34°30' E 134°40'612.2
2018-Jan-05 18:00N 34°28' E 134°33'612.2
2018-Jan-05 17:30N 34°26' E 134°26'612.0
2018-Jan-05 17:00N 34°24' E 134°20'8010.3
2018-Jan-05 09:11N 34°01' E 132°46'210.4
2018-Jan-05 09:00N 33°60' E 132°45'5 9.8
2018-Jan-05 08:30N 33°56' E 132°41'5 9.8
2018-Jan-05 08:00N 33°53' E 132°36'1110.7
2018-Jan-05 06:59N 33°50' E 132°23'510.4
2018-Jan-05 06:30N 33°50' E 132°17'611.1
2018-Jan-05 06:00N 33°49' E 132°11'611.1
2018-Jan-05 05:29N 33°46' E 132°05'711.5
2018-Jan-05 04:51N 33°45' E 131°56'512.1
2018-Jan-05 04:28N 33°46' E 131°51'612.2
2018-Jan-05 04:00N 33°47' E 131°44'612.0
2018-Jan-05 03:30N 33°49' E 131°37'611.8
2018-Jan-05 03:00N 33°50' E 131°30'611.6
2018-Jan-05 02:30N 33°51' E 131°23'611.5
2018-Jan-05 02:00N 33°52' E 131°16'510.5
2018-Jan-05 01:30N 33°55' E 131°12'1 2.1
2018-Jan-05 01:00N 33°56' E 131°12'0 0.0
2018-Jan-05 00:30N 33°56' E 131°12'0 0.0
2018-Jan-04 23:57N 33°56' E 131°12'0 0.0
2018-Jan-04 23:30N 33°56' E 131°12'0 0.0
2018-Jan-04 22:57N 33°56' E 131°12'0 0.0
2018-Jan-04 22:30N 33°56' E 131°12'2 3.4
2018-Jan-04 22:00N 33°55' E 131°12'1 2.2
2018-Jan-04 21:28N 33°54' E 131°12'0 0.0
2018-Jan-04 20:59N 33°54' E 131°12'0 0.0
2018-Jan-04 20:28N 33°54' E 131°12'0 0.1
2018-Jan-04 19:58N 33°54' E 131°12'0 0.0
2018-Jan-04 19:29N 33°54' E 131°12'0 0.1
2018-Jan-04 18:58N 33°54' E 131°12'0 0.0
2018-Jan-04 18:28N 33°54' E 131°12'0 0.1
2018-Jan-04 17:59N 33°54' E 131°12'0 0.0
2018-Jan-04 17:29N 33°54' E 131°12'0 0.1
2018-Jan-04 16:59N 33°54' E 131°12'0 0.1
2018-Jan-04 16:29N 33°54' E 131°12'4 8.5
2018-Jan-04 16:01N 33°52' E 131°16'611.6
2018-Jan-04 15:30N 33°51' E 131°23'611.8
2018-Jan-04 15:00N 33°50' E 131°30'612.1
2018-Jan-04 14:30N 33°49' E 131°37'612.1
2018-Jan-04 14:00N 33°47' E 131°44'612.3
2018-Jan-04 13:30N 33°46' E 131°52'812.1
2018-Jan-04 12:53N 33°46' E 132°01'411.3
2018-Jan-04 12:29N 33°47' E 132°06'611.5
2018-Jan-04 11:59N 33°50' E 132°12'611.8
2018-Jan-04 11:30N 33°50' E 132°19'811.2
2018-Jan-04 10:49N 33°52' E 132°28'412.0
2018-Jan-04 10:29N 33°53' E 132°32'612.3
2018-Jan-04 10:00N 33°55' E 132°39'612.3
2018-Jan-04 09:30N 33°60' E 132°44'  
Track history (hours):
 
Tides and Currents Weather Stations Pressure Air Temp Water Temp Dewpoint Dewpoint Depression Visibility Wind Speed Wind Dir Waves Ship Positions

Atago

Last reported at 2018-Jan-12 04:59 UTC. Time now 2018-Jan-19 01:08 UTC.
Position N 34°35' E 136°58'.

Length 61 m; draft 3.8 m.

Type: Tanker. MMSI: 431004325.

Date/timePositionNaut miles runAvg speedWind from/ knotsBaromVisibWave heightAir tempDewpointWater temp
2018-Jan-12 04:59N 34°35' E 136°58'611.7
2018-Jan-12 04:30N 34°38' E 136°52'611.8
2018-Jan-12 04:00N 34°43' E 136°48'612.3
2018-Jan-12 03:30N 34°49' E 136°45'611.8
2018-Jan-12 03:00N 34°54' E 136°42'4 8.2
2018-Jan-12 02:30N 34°57' E 136°38'0 0.0
2018-Jan-12 02:00N 34°57' E 136°38'0 0.0
2018-Jan-12 01:29N 34°57' E 136°38'0 0.0
2018-Jan-12 00:59N 34°57' E 136°38'0 0.0
2018-Jan-12 00:29N 34°57' E 136°38'0 0.4
2018-Jan-12 00:01N 34°57' E 136°38'3 5.2
2018-Jan-11 23:30N 34°56' E 136°41'4 9.0
2018-Jan-11 23:01N 34°51' E 136°43'4 8.7
2018-Jan-11 22:30N 34°47' E 136°46'4 8.4
2018-Jan-11 22:00N 34°44' E 136°48'4 8.9
2018-Jan-11 21:30N 34°40' E 136°51'7 8.8
2018-Jan-11 20:44N 34°36' E 136°58'106 8.1
2018-Jan-11 07:41N 33°47' E 135°04'412.1
2018-Jan-11 07:22N 33°50' E 135°02'411.9
2018-Jan-11 07:00N 33°55' E 135°01'611.7
2018-Jan-11 06:30N 34°00' E 135°00'611.6
2018-Jan-11 06:01N 34°06' E 134°59'611.7
2018-Jan-11 05:30N 34°12' E 134°59'611.6
2018-Jan-11 05:01N 34°18' E 134°59'511.0
2018-Jan-11 04:30N 34°23' E 135°01'611.3
2018-Jan-11 04:00N 34°27' E 135°06'611.5
2018-Jan-11 03:30N 34°30' E 135°12'611.3
2018-Jan-11 03:01N 34°35' E 135°16'611.0
2018-Jan-11 02:30N 34°39' E 135°21'4 7.9
2018-Jan-11 02:00N 34°40' E 135°25'0 0.1
2018-Jan-11 01:30N 34°40' E 135°25'0 0.0
2018-Jan-11 01:00N 34°40' E 135°25'0 0.0
2018-Jan-11 00:30N 34°40' E 135°25'0 0.0
2018-Jan-11 00:00N 34°40' E 135°25'0 0.0
2018-Jan-10 23:30N 34°40' E 135°25'1 2.9
2018-Jan-10 23:00N 34°40' E 135°24'2 3.4
2018-Jan-10 22:28N 34°40' E 135°21'0 0.0
2018-Jan-10 21:58N 34°40' E 135°21'0 0.0
2018-Jan-10 21:28N 34°40' E 135°21'0 0.0
2018-Jan-10 20:58N 34°40' E 135°21'0 0.0
2018-Jan-10 20:28N 34°40' E 135°21'0 0.0
2018-Jan-10 19:58N 34°40' E 135°21'0 0.0
2018-Jan-10 19:28N 34°40' E 135°21'0 0.0
2018-Jan-10 18:58N 34°40' E 135°21'0 0.0
2018-Jan-10 18:28N 34°40' E 135°21'0 0.0
2018-Jan-10 17:58N 34°40' E 135°21'0 0.0
2018-Jan-10 17:28N 34°40' E 135°21'0 0.0
2018-Jan-10 16:58N 34°40' E 135°21'0 0.1
2018-Jan-10 16:28N 34°40' E 135°21'3 5.5
2018-Jan-10 16:00N 34°38' E 135°19'611.4
2018-Jan-10 15:30N 34°35' E 135°13'612.2
2018-Jan-10 15:00N 34°35' E 135°06'612.8
2018-Jan-10 14:30N 34°37' E 134°58'713.6
2018-Jan-10 14:00N 34°34' E 134°51'612.4
2018-Jan-10 13:30N 34°31' E 134°44'611.9
2018-Jan-10 13:00N 34°29' E 134°37'611.7
2018-Jan-10 12:30N 34°27' E 134°30'611.9
2018-Jan-10 11:58N 34°25' E 134°23'84 4.2
2018-Jan-09 16:00N 34°02' E 132°46'611.7
2018-Jan-09 15:30N 33°57' E 132°42'611.6
2018-Jan-09 15:00N 33°54' E 132°37'811.5
2018-Jan-09 14:20N 33°51' E 132°28'411.4
2018-Jan-09 13:58N 33°50' E 132°23'911.8
2018-Jan-09 13:10N 33°50' E 132°12'311.5
2018-Jan-09 12:54N 33°48' E 132°08'511.6
2018-Jan-09 12:29N 33°46' E 132°03'611.1
2018-Jan-09 11:57N 33°50' E 131°58'711.8
2018-Jan-09 11:22N 33°53' E 131°51'411.9
2018-Jan-09 10:59N 33°56' E 131°47'611.8
2018-Jan-09 10:29N 34°01' E 131°43'2 4.2
2018-Jan-09 10:00N 34°03' E 131°45'0 0.0
2018-Jan-09 09:30N 34°03' E 131°45'0 0.0
2018-Jan-09 09:00N 34°03' E 131°45'0 0.0
2018-Jan-09 07:48N 34°03' E 131°45'0 1.4
2018-Jan-09 07:30N 34°02' E 131°45'3 6.1
2018-Jan-09 07:00N 34°02' E 131°41'1 1.7
2018-Jan-09 06:25N 34°01' E 131°40'0 0.1
2018-Jan-09 05:55N 34°01' E 131°40'0 0.0
2018-Jan-09 05:28N 34°01' E 131°40'0 0.0
2018-Jan-09 04:49N 34°01' E 131°40'0 0.0
2018-Jan-09 04:19N 34°01' E 131°40'0 0.0
2018-Jan-09 03:49N 34°01' E 131°40'0 0.1
2018-Jan-09 03:28N 34°01' E 131°40'0 0.0
2018-Jan-09 02:55N 34°01' E 131°40'0 0.0
2018-Jan-09 02:25N 34°01' E 131°40'0 0.1
2018-Jan-09 01:58N 34°01' E 131°40'0 0.1
2018-Jan-09 01:28N 34°01' E 131°40'0 0.1
2018-Jan-09 00:58N 34°01' E 131°40'0 0.1
2018-Jan-09 00:25N 34°01' E 131°40'0 0.0
2018-Jan-08 23:58N 34°01' E 131°40'0 0.1
2018-Jan-08 23:28N 34°01' E 131°40'0 0.0
2018-Jan-08 22:55N 34°01' E 131°40'0 0.0
2018-Jan-08 22:19N 34°01' E 131°40'0 0.0
2018-Jan-08 21:58N 34°01' E 131°40'0 0.0
2018-Jan-08 21:28N 34°01' E 131°40'0 0.0
2018-Jan-08 20:58N 34°01' E 131°40'0 0.0
2018-Jan-08 20:28N 34°01' E 131°40'0 0.0
2018-Jan-08 19:58N 34°01' E 131°40'0 0.0
2018-Jan-08 19:28N 34°01' E 131°40'0 0.0
2018-Jan-08 18:58N 34°01' E 131°40'0 0.0
2018-Jan-08 18:28N 34°01' E 131°40'0 0.0
2018-Jan-08 17:55N 34°01' E 131°40'0 0.0
2018-Jan-08 17:25N 34°01' E 131°40'0 0.0
2018-Jan-08 16:58N 34°01' E 131°40'0 0.0
2018-Jan-08 16:28N 34°01' E 131°40'0 0.0
2018-Jan-08 15:58N 34°01' E 131°40'0 0.0
2018-Jan-08 15:16N 34°01' E 131°40'0 0.0
2018-Jan-08 14:58N 34°01' E 131°40'0 0.0
2018-Jan-08 14:28N 34°01' E 131°40'3 5.5
2018-Jan-08 14:00N 33°59' E 131°42'510.4
2018-Jan-08 13:30N 33°56' E 131°47'1010.4
2018-Jan-08 12:30N 33°50' E 131°57'611.2
2018-Jan-08 12:00N 33°46' E 132°02'611.3
2018-Jan-08 11:30N 33°48' E 132°08'611.7
2018-Jan-08 11:01N 33°50' E 132°14'612.1
2018-Jan-08 10:29N 33°50' E 132°22'712.3
2018-Jan-08 09:52N 33°52' E 132°31'412.4
2018-Jan-08 09:30N 33°54' E 132°36'712.8
2018-Jan-08 09:00N 33°58' E 132°42'88 2.9
2018-Jan-07 03:03N 34°25' E 134°23'112.6
2018-Jan-07 02:56N 34°26' E 134°25'512.8
2018-Jan-07 02:30N 34°28' E 134°31'613.0
2018-Jan-07 02:00N 34°30' E 134°38'713.3
2018-Jan-07 01:30N 34°33' E 134°46'1413.8
2018-Jan-07 00:31N 34°37' E 135°02'611.8
2018-Jan-07 00:00N 34°36' E 135°09'612.1
2018-Jan-06 23:30N 34°37' E 135°16'612.0
2018-Jan-06 23:00N 34°40' E 135°23'510.2
2018-Jan-06 22:30N 34°38' E 135°28'1 0.9
2018-Jan-06 21:58N 34°38' E 135°29'0 0.0
2018-Jan-06 21:28N 34°38' E 135°29'0 0.0
2018-Jan-06 20:58N 34°38' E 135°29'0 0.0
2018-Jan-06 20:28N 34°38' E 135°29'0 0.0
2018-Jan-06 19:58N 34°38' E 135°29'0 0.0
2018-Jan-06 19:28N 34°38' E 135°29'0 0.0
2018-Jan-06 18:58N 34°38' E 135°29'0 0.0
2018-Jan-06 18:28N 34°38' E 135°29'0 0.0
2018-Jan-06 17:58N 34°38' E 135°29'0 0.0
2018-Jan-06 17:28N 34°38' E 135°29'0 0.0
2018-Jan-06 16:58N 34°38' E 135°29'0 0.0
2018-Jan-06 16:28N 34°38' E 135°29'0 0.0
2018-Jan-06 15:58N 34°38' E 135°29'0 0.0
2018-Jan-06 15:28N 34°38' E 135°29'0 0.0
2018-Jan-06 14:58N 34°38' E 135°29'0 0.0
2018-Jan-06 14:28N 34°38' E 135°29'0 0.0
2018-Jan-06 13:58N 34°38' E 135°29'0 0.0
2018-Jan-06 13:28N 34°38' E 135°29'0 0.0
2018-Jan-06 12:58N 34°38' E 135°29'0 0.0
2018-Jan-06 12:28N 34°38' E 135°29'0 0.0
2018-Jan-06 11:58N 34°38' E 135°29'0 0.0
2018-Jan-06 11:28N 34°38' E 135°29'0 0.0
2018-Jan-06 10:58N 34°38' E 135°29'0 0.0
2018-Jan-06 10:28N 34°38' E 135°29'0 0.0
2018-Jan-06 09:58N 34°38' E 135°29'0 0.0
2018-Jan-06 09:28N 34°38' E 135°29'0 0.0
2018-Jan-06 08:58N 34°38' E 135°29'0 0.0
2018-Jan-06 08:28N 34°38' E 135°29'0 0.0
2018-Jan-06 07:55N 34°38' E 135°29'0 0.0
2018-Jan-06 07:22N 34°38' E 135°29'0 0.0
2018-Jan-06 06:55N 34°38' E 135°29'0 0.1
2018-Jan-06 06:30N 34°38' E 135°29'3 5.4
2018-Jan-06 06:00N 34°39' E 135°25'5 9.8
2018-Jan-06 05:30N 34°35' E 135°22'3 6.5
2018-Jan-06 05:00N 34°32' E 135°25'0 0.0
2018-Jan-06 04:30N 34°32' E 135°25'0 0.0
2018-Jan-06 04:00N 34°32' E 135°25'0 0.0
2018-Jan-06 03:30N 34°32' E 135°25'0 0.0
2018-Jan-06 03:00N 34°32' E 135°25'0 0.0
2018-Jan-06 02:30N 34°32' E 135°25'0 0.0
2018-Jan-06 01:57N 34°32' E 135°25'0 0.0
2018-Jan-06 01:30N 34°32' E 135°25'0 0.0
2018-Jan-06 00:57N 34°32' E 135°25'0 0.0
2018-Jan-06 00:31N 34°32' E 135°25'1 2.1
2018-Jan-06 00:01N 34°33' E 135°25'2 3.9
2018-Jan-05 23:30N 34°33' E 135°22'0 0.0
2018-Jan-05 23:00N 34°33' E 135°22'0 0.0
2018-Jan-05 22:30N 34°33' E 135°22'0 0.0
2018-Jan-05 22:00N 34°33' E 135°22'0 0.1
2018-Jan-05 21:30N 34°33' E 135°22'5 9.5
2018-Jan-05 21:00N 34°34' E 135°17'611.0
2018-Jan-05 20:30N 34°34' E 135°10'611.3
2018-Jan-05 20:00N 34°36' E 135°03'713.4
2018-Jan-05 19:30N 34°35' E 134°55'714.1
2018-Jan-05 19:00N 34°33' E 134°47'612.5
2018-Jan-05 18:30N 34°30' E 134°40'612.2
2018-Jan-05 18:00N 34°28' E 134°33'612.2
2018-Jan-05 17:30N 34°26' E 134°26'612.0
2018-Jan-05 17:00N 34°24' E 134°20'8010.3
2018-Jan-05 09:11N 34°01' E 132°46'210.4
2018-Jan-05 09:00N 33°60' E 132°45'5 9.8
2018-Jan-05 08:30N 33°56' E 132°41'5 9.8
2018-Jan-05 08:00N 33°53' E 132°36'1110.7
2018-Jan-05 06:59N 33°50' E 132°23'510.4
2018-Jan-05 06:30N 33°50' E 132°17'611.1
2018-Jan-05 06:00N 33°49' E 132°11'611.1
2018-Jan-05 05:29N 33°46' E 132°05'711.5
2018-Jan-05 04:51N 33°45' E 131°56'512.1
2018-Jan-05 04:28N 33°46' E 131°51'612.2
2018-Jan-05 04:00N 33°47' E 131°44'612.0
2018-Jan-05 03:30N 33°49' E 131°37'611.8
2018-Jan-05 03:00N 33°50' E 131°30'611.6
2018-Jan-05 02:30N 33°51' E 131°23'611.5
2018-Jan-05 02:00N 33°52' E 131°16'510.5
2018-Jan-05 01:30N 33°55' E 131°12'1 2.1
2018-Jan-05 01:00N 33°56' E 131°12'0 0.0
2018-Jan-05 00:30N 33°56' E 131°12'0 0.0
2018-Jan-04 23:57N 33°56' E 131°12'0 0.0
2018-Jan-04 23:30N 33°56' E 131°12'0 0.0
2018-Jan-04 22:57N 33°56' E 131°12'0 0.0
2018-Jan-04 22:30N 33°56' E 131°12'2 3.4
2018-Jan-04 22:00N 33°55' E 131°12'1 2.2
2018-Jan-04 21:28N 33°54' E 131°12'0 0.0
2018-Jan-04 20:59N 33°54' E 131°12'0 0.0
2018-Jan-04 20:28N 33°54' E 131°12'0 0.1
2018-Jan-04 19:58N 33°54' E 131°12'0 0.0
2018-Jan-04 19:29N 33°54' E 131°12'0 0.1
2018-Jan-04 18:58N 33°54' E 131°12'0 0.0
2018-Jan-04 18:28N 33°54' E 131°12'0 0.1
2018-Jan-04 17:59N 33°54' E 131°12'0 0.0
2018-Jan-04 17:29N 33°54' E 131°12'0 0.1
2018-Jan-04 16:59N 33°54' E 131°12'0 0.1
2018-Jan-04 16:29N 33°54' E 131°12'4 8.5
2018-Jan-04 16:01N 33°52' E 131°16'611.6
2018-Jan-04 15:30N 33°51' E 131°23'611.8
2018-Jan-04 15:00N 33°50' E 131°30'612.1
2018-Jan-04 14:30N 33°49' E 131°37'612.1
2018-Jan-04 14:00N 33°47' E 131°44'612.3
2018-Jan-04 13:30N 33°46' E 131°52'812.1
2018-Jan-04 12:53N 33°46' E 132°01'411.3
2018-Jan-04 12:29N 33°47' E 132°06'611.5
2018-Jan-04 11:59N 33°50' E 132°12'611.8
2018-Jan-04 11:30N 33°50' E 132°19'811.2
2018-Jan-04 10:49N 33°52' E 132°28'412.0
2018-Jan-04 10:29N 33°53' E 132°32'612.3
2018-Jan-04 10:00N 33°55' E 132°39'612.3
2018-Jan-04 09:30N 33°60' E 132°44'  

Dump ship's entire track history